Time;durP1;ratioP1;P1;durP2;ratioP2;P2;SDS_P1;SDS_P2;PMS_P1;PMS_P2;Temp;Humidity;BMP_temperature;BMP_pressure;BME280_temperature;BME280_humidity;BME280_pressure;Samples;Min_cycle;Max_cycle;Signal;HPM_P1;HPM_P2
2024/01/22 00:01:46;;;;;;;0.57;0.57;;;6.20;99.90;;;;;;5074803;28;20202;-81
2024/01/22 00:04:13;;;;;;;2.42;1.35;;;6.20;99.90;;;;;;5074738;28;20203;-81
2024/01/22 00:06:40;;;;;;;0.60;0.60;;;6.20;99.90;;;;;;5074535;28;20891;-81
2024/01/22 00:09:09;;;;;;;2.75;2.03;;;6.20;99.90;;;;;;5074841;28;20658;-81
2024/01/22 00:11:35;;;;;;;6.15;1.05;;;6.20;99.90;;;;;;5066292;28;20199;-79
2024/01/22 00:14:02;;;;;;;2.25;0.85;;;6.20;99.90;;;;;;5075352;28;20543;-81
2024/01/22 00:16:29;;;;;;;2.15;1.08;;;6.30;99.90;;;;;;5074472;28;20214;-80
2024/01/22 00:18:56;;;;;;;1.45;0.93;;;6.30;99.90;;;;;;5074923;28;20208;-80
2024/01/22 00:21:23;;;;;;;1.35;1.00;;;6.30;99.90;;;;;;5074538;28;20748;-81
2024/01/22 00:23:49;;;;;;;7.30;1.63;;;6.30;99.90;;;;;;5070462;28;20211;-79
2024/01/22 00:26:17;;;;;;;1.95;1.75;;;6.40;99.90;;;;;;5069667;28;20214;-80
2024/01/22 00:28:44;;;;;;;1.48;1.38;;;6.40;99.90;;;;;;5065992;28;20202;-79
2024/01/22 00:31:11;;;;;;;3.90;1.35;;;6.40;99.90;;;;;;5074550;28;20213;-80
2024/01/22 00:33:37;;;;;;;1.70;1.20;;;6.50;99.90;;;;;;5074470;28;20186;-78
2024/01/22 00:36:05;;;;;;;0.80;0.80;;;6.50;99.90;;;;;;5074818;28;20225;-81
2024/01/22 00:38:31;;;;;;;1.58;0.50;;;6.60;99.90;;;;;;5074262;28;20191;-79
2024/01/22 00:40:58;;;;;;;0.68;0.60;;;6.60;99.90;;;;;;5074089;28;20200;-80
2024/01/22 00:43:26;;;;;;;0.70;0.60;;;6.60;99.90;;;;;;5074085;28;20229;-80
2024/01/22 00:45:53;;;;;;;0.50;0.40;;;6.60;99.90;;;;;;5073751;28;20214;-81
2024/01/22 00:48:20;;;;;;;0.68;0.63;;;6.60;99.90;;;;;;5059289;28;20195;-81
2024/01/22 00:50:46;;;;;;;1.50;1.35;;;6.70;99.90;;;;;;5072638;28;20210;-80
2024/01/22 00:53:13;;;;;;;1.25;1.15;;;6.70;99.90;;;;;;5074808;28;20202;-79
2024/01/22 00:55:40;;;;;;;0.88;0.88;;;6.70;99.90;;;;;;5066332;28;20202;-80
2024/01/22 00:58:07;;;;;;;2.15;2.05;;;6.80;99.90;;;;;;5074140;28;20191;-80
2024/01/22 01:00:35;;;;;;;1.08;0.70;;;6.80;99.90;;;;;;5074074;28;20198;-79
2024/01/22 01:03:01;;;;;;;1.88;0.60;;;6.80;99.90;;;;;;5074323;28;20694;-81
2024/01/22 01:05:28;;;;;;;2.92;0.93;;;6.80;99.90;;;;;;5066682;28;20191;-79
2024/01/22 01:07:55;;;;;;;2.25;1.75;;;6.80;99.90;;;;;;5077927;28;20267;-79
2024/01/22 01:10:22;;;;;;;0.70;0.70;;;6.90;99.90;;;;;;5071233;28;20293;-79
2024/01/22 01:12:48;;;;;;;0.50;0.50;;;7.00;99.90;;;;;;5075542;28;20202;-79
2024/01/22 01:15:16;;;;;;;1.15;0.85;;;7.00;99.90;;;;;;5074094;28;20640;-78
2024/01/22 01:17:44;;;;;;;1.95;1.85;;;7.00;99.90;;;;;;5065609;28;20227;-79
2024/01/22 01:20:12;;;;;;;0.80;0.75;;;7.00;99.90;;;;;;5065032;28;20201;-79
2024/01/22 01:22:39;;;;;;;0.93;0.93;;;7.00;99.90;;;;;;5072419;28;20219;-79
2024/01/22 01:25:05;;;;;;;0.50;0.40;;;7.00;99.90;;;;;;5083635;28;20205;-79
2024/01/22 01:27:32;;;;;;;0.93;0.93;;;7.10;99.90;;;;;;5082945;28;20228;-78
2024/01/22 01:29:59;;;;;;;1.17;0.65;;;7.10;99.90;;;;;;5066129;28;20194;-79
2024/01/22 01:32:27;;;;;;;1.73;0.90;;;7.10;99.90;;;;;;5068226;28;20191;-80
2024/01/22 01:34:55;;;;;;;0.60;0.50;;;7.10;99.90;;;;;;5059080;28;20204;-81
2024/01/22 01:37:21;;;;;;;2.17;2.00;;;7.20;99.90;;;;;;5057947;28;20225;-80
2024/01/22 01:39:48;;;;;;;2.35;1.02;;;7.20;99.90;;;;;;5074231;28;20201;-80
2024/01/22 01:42:15;;;;;;;0.70;0.68;;;7.20;99.90;;;;;;5058013;28;20195;-80
2024/01/22 01:44:52;;;;;;;0.60;0.50;;;7.30;99.90;;;;;;5074840;28;20580;-80
2024/01/22 01:47:19;;;;;;;1.70;1.60;;;7.30;99.90;;;;;;5072187;28;20229;-80
2024/01/22 01:49:47;;;;;;;2.05;1.75;;;7.40;99.90;;;;;;5057663;28;20203;-81
2024/01/22 01:52:16;;;;;;;1.60;0.65;;;7.40;99.90;;;;;;5063421;28;20209;-80
2024/01/22 01:54:45;;;;;;;3.97;0.70;;;7.50;99.90;;;;;;5077336;28;20198;-80
2024/01/22 01:57:12;;;;;;;0.65;0.60;;;7.50;99.90;;;;;;5063766;28;20221;-81
2024/01/22 01:59:42;;;;;;;0.70;0.70;;;7.50;99.90;;;;;;5058069;28;20201;-81
2024/01/22 02:02:09;;;;;;;0.52;0.50;;;7.60;99.90;;;;;;5064614;28;20191;-81
2024/01/22 02:04:35;;;;;;;3.10;1.23;;;7.60;99.90;;;;;;5057739;28;20210;-81
2024/01/22 02:07:04;;;;;;;14.95;0.88;;;7.70;99.90;;;;;;5065666;28;20215;-81
2024/01/22 02:09:48;;;;;;;1.45;1.33;;;7.70;99.90;;;;;;5072944;28;20198;-81
2024/01/22 02:12:16;;;;;;;9.88;2.58;;;7.70;99.90;;;;;;5055794;28;20199;-81
2024/01/22 02:14:43;;;;;;;0.60;0.60;;;7.70;99.90;;;;;;5065111;28;20210;-81
2024/01/22 02:17:09;;;;;;;1.05;0.95;;;7.70;99.90;;;;;;5061488;28;20229;-81
2024/01/22 02:19:36;;;;;;;0.75;0.70;;;7.70;99.90;;;;;;5077213;28;20201;-81
2024/01/22 02:22:03;;;;;;;0.82;0.60;;;7.80;99.90;;;;;;5064867;28;20202;-80
2024/01/22 02:24:31;;;;;;;0.77;0.77;;;7.80;99.90;;;;;;5056956;28;20215;-81
2024/01/22 02:26:58;;;;;;;1.80;1.48;;;7.80;99.90;;;;;;5074710;28;20228;-80
2024/01/22 02:29:24;;;;;;;0.50;0.40;;;7.80;99.90;;;;;;5090821;28;20213;-79
2024/01/22 02:31:52;;;;;;;2.17;1.30;;;7.80;99.90;;;;;;5085980;28;20201;-81
2024/01/22 02:34:19;;;;;;;1.45;0.70;;;7.80;99.90;;;;;;5072334;28;20195;-81
2024/01/22 02:36:46;;;;;;;1.83;0.80;;;7.80;99.90;;;;;;5065453;28;20219;-81
2024/01/22 02:39:13;;;;;;;0.77;0.65;;;7.80;99.90;;;;;;5070171;28;20198;-81
2024/01/22 02:41:41;;;;;;;0.88;0.75;;;7.80;99.90;;;;;;5077211;28;20202;-80
2024/01/22 02:44:08;;;;;;;0.60;0.60;;;7.80;99.90;;;;;;5076624;28;20215;-80
2024/01/22 02:46:35;;;;;;;0.80;0.80;;;7.90;99.90;;;;;;5077065;28;20233;-81
2024/01/22 02:49:01;;;;;;;0.77;0.77;;;7.90;99.90;;;;;;5076849;28;20199;-81
2024/01/22 02:51:28;;;;;;;0.50;0.40;;;7.90;99.90;;;;;;5076418;28;20199;-81
2024/01/22 02:53:55;;;;;;;0.50;0.40;;;7.90;99.90;;;;;;5076248;28;20692;-81
2024/01/22 02:56:22;;;;;;;0.80;0.80;;;7.90;99.90;;;;;;5076261;28;20233;-81
2024/01/22 02:58:50;;;;;;;0.85;0.82;;;7.90;99.90;;;;;;5059644;28;20191;-81
2024/01/22 03:01:17;;;;;;;1.15;0.55;;;7.90;99.90;;;;;;5057016;28;20310;-80
2024/01/22 03:03:44;;;;;;;1.00;1.00;;;8.00;99.90;;;;;;5073574;28;20217;-81
2024/01/22 03:06:10;;;;;;;0.50;0.40;;;8.00;99.90;;;;;;5076288;28;20297;-81
2024/01/22 03:08:37;;;;;;;2.15;0.82;;;8.10;99.90;;;;;;5076514;28;20190;-80
2024/01/22 03:11:04;;;;;;;1.60;0.75;;;8.10;99.90;;;;;;5073837;28;20191;-81
2024/01/22 03:13:31;;;;;;;0.60;0.60;;;8.10;99.90;;;;;;5056667;28;20684;-80
2024/01/22 03:15:59;;;;;;;0.70;0.63;;;8.20;99.90;;;;;;5058105;28;20226;-81
2024/01/22 03:18:26;;;;;;;2.92;0.98;;;8.30;99.90;;;;;;5076437;28;20192;-81
2024/01/22 03:20:53;;;;;;;1.50;0.95;;;8.30;99.90;;;;;;5074607;28;20218;-81
2024/01/22 03:23:19;;;;;;;0.80;0.60;;;8.30;99.90;;;;;;5060889;28;20217;-80
2024/01/22 03:25:46;;;;;;;0.50;0.50;;;8.50;99.90;;;;;;5075641;28;20731;-80
2024/01/22 03:28:13;;;;;;;0.75;0.75;;;8.50;99.90;;;;;;5076285;28;20216;-81
2024/01/22 03:30:40;;;;;;;0.50;0.45;;;8.50;99.90;;;;;;5076295;28;20198;-80
2024/01/22 03:33:08;;;;;;;0.60;0.57;;;8.50;99.90;;;;;;5064596;28;20569;-81
2024/01/22 03:35:35;;;;;;;0.60;0.50;;;8.60;99.90;;;;;;5056198;28;20203;-81
2024/01/22 03:38:01;;;;;;;0.50;0.50;;;8.60;99.90;;;;;;5057831;28;20203;-81
2024/01/22 03:40:28;;;;;;;0.70;0.70;;;8.60;99.90;;;;;;5062514;28;20194;-82
2024/01/22 03:42:55;;;;;;;0.70;0.60;;;8.50;99.90;;;;;;5073466;28;20199;-82
2024/01/22 03:45:21;;;;;;;0.50;0.50;;;8.30;99.90;;;;;;5075558;28;20199;-82
2024/01/22 03:47:48;;;;;;;1.50;1.40;;;8.10;99.90;;;;;;5074617;28;20575;-81
2024/01/22 03:50:16;;;;;;;0.50;0.40;;;8.00;99.90;;;;;;5075383;28;20195;-82
2024/01/22 03:52:43;;;;;;;0.60;0.60;;;7.90;99.90;;;;;;5075970;28;20204;-81
2024/01/22 03:55:10;;;;;;;1.02;0.93;;;7.80;99.90;;;;;;5076156;28;20565;-82
2024/01/22 03:57:37;;;;;;;1.50;1.40;;;7.70;99.90;;;;;;5075858;28;20241;-80
2024/01/22 04:00:05;;;;;;;2.35;0.70;;;7.70;99.90;;;;;;5076374;28;20203;-82
2024/01/22 04:02:34;;;;;;;0.90;0.57;;;7.70;99.90;;;;;;5076027;28;20191;-81
2024/01/22 04:05:01;;;;;;;2.38;1.27;;;7.70;99.90;;;;;;5076292;28;20689;-81
2024/01/22 04:07:29;;;;;;;0.73;0.68;;;7.70;99.90;;;;;;5075798;28;20218;-81
2024/01/22 04:09:56;;;;;;;0.50;0.50;;;7.70;99.90;;;;;;5076460;28;20202;-81
2024/01/22 04:12:22;;;;;;;0.93;0.82;;;7.70;99.90;;;;;;5076301;28;20205;-81
2024/01/22 04:14:49;;;;;;;0.85;0.57;;;7.70;99.90;;;;;;5076014;28;20206;-81
2024/01/22 04:17:16;;;;;;;0.50;0.50;;;7.70;99.90;;;;;;5056132;28;20309;-80
2024/01/22 04:19:43;;;;;;;1.15;1.02;;;7.70;99.90;;;;;;5062613;28;20210;-82
2024/01/22 04:22:10;;;;;;;1.92;1.15;;;7.60;99.90;;;;;;5055868;28;20203;-82
2024/01/22 04:24:39;;;;;;;0.60;0.60;;;7.60;99.90;;;;;;5061771;28;20685;-81
2024/01/22 04:27:05;;;;;;;0.95;0.95;;;7.60;99.90;;;;;;5075422;28;20230;-82
2024/01/22 04:29:34;;;;;;;0.40;0.40;;;7.60;99.90;;;;;;5076693;28;20262;-79
2024/01/22 04:32:01;;;;;;;0.50;0.40;;;7.50;99.90;;;;;;5075061;28;20206;-82
2024/01/22 04:34:27;;;;;;;0.70;0.70;;;7.50;99.90;;;;;;5075415;28;20197;-81
2024/01/22 04:36:54;;;;;;;0.60;0.60;;;7.50;99.90;;;;;;5074515;28;20218;-80
2024/01/22 04:39:21;;;;;;;1.08;0.88;;;7.50;99.90;;;;;;5075560;28;20276;-82
2024/01/22 04:41:49;;;;;;;0.57;0.57;;;7.50;99.90;;;;;;5075629;28;20205;-81
2024/01/22 04:44:16;;;;;;;1.23;1.13;;;7.60;99.90;;;;;;5074946;28;20236;-80
2024/01/22 04:46:43;;;;;;;0.50;0.50;;;7.60;99.90;;;;;;5078535;28;20218;-81
2024/01/22 04:49:10;;;;;;;1.88;1.50;;;7.60;99.90;;;;;;5070589;28;20202;-82
2024/01/22 04:51:37;;;;;;;0.52;0.52;;;7.60;99.90;;;;;;5079074;28;20573;-79
2024/01/22 04:54:04;;;;;;;0.60;0.60;;;7.60;99.90;;;;;;5079479;28;20202;-81
2024/01/22 04:56:30;;;;;;;0.40;0.40;;;7.60;99.90;;;;;;5070845;28;20214;-79
2024/01/22 04:58:58;;;;;;;0.50;0.50;;;7.60;99.90;;;;;;5078883;28;20221;-82
2024/01/22 05:01:25;;;;;;;0.50;0.40;;;7.70;99.90;;;;;;5079739;28;20194;-82
2024/01/22 05:03:52;;;;;;;0.43;0.43;;;7.60;99.90;;;;;;5078702;28;20214;-81
2024/01/22 05:06:18;;;;;;;0.47;0.45;;;7.70;99.90;;;;;;5078206;28;20210;-80
2024/01/22 05:08:46;;;;;;;0.82;0.55;;;7.70;99.90;;;;;;5079107;28;20204;-81
2024/01/22 05:11:12;;;;;;;0.50;0.40;;;7.80;99.90;;;;;;5078126;28;20195;-81
2024/01/22 05:13:48;;;;;;;0.43;0.40;;;7.80;99.90;;;;;;5077370;28;20190;-80
2024/01/22 05:16:16;;;;;;;0.63;0.63;;;7.90;99.90;;;;;;5068235;28;20313;-80
2024/01/22 05:18:44;;;;;;;0.50;0.50;;;7.90;99.90;;;;;;5061412;28;20246;-78
2024/01/22 05:21:11;;;;;;;0.60;0.50;;;8.00;99.90;;;;;;5067811;28;20198;-78
2024/01/22 05:23:37;;;;;;;1.40;0.70;;;8.00;99.90;;;;;;5076971;28;20624;-78
2024/01/22 05:26:05;;;;;;;0.55;0.40;;;8.00;99.90;;;;;;5075190;28;20218;-80
2024/01/22 05:28:32;;;;;;;0.55;0.50;;;8.00;99.90;;;;;;5075037;28;20199;-79
2024/01/22 05:31:00;;;;;;;0.40;0.30;;;7.90;99.90;;;;;;5073230;28;20206;-80
2024/01/22 05:33:28;;;;;;;0.50;0.40;;;7.90;99.90;;;;;;5073486;28;20308;-78
2024/01/22 05:35:56;;;;;;;0.50;0.50;;;7.90;99.90;;;;;;5061414;28;20716;-79
2024/01/22 05:38:23;;;;;;;0.40;0.40;;;7.90;99.90;;;;;;5076402;28;20202;-79
2024/01/22 05:40:50;;;;;;;0.52;0.52;;;7.90;99.90;;;;;;5078356;28;20200;-80
2024/01/22 05:43:17;;;;;;;0.60;0.40;;;7.90;99.90;;;;;;5076979;28;20218;-79
2024/01/22 05:45:43;;;;;;;0.82;0.82;;;7.90;99.90;;;;;;5062894;28;20205;-78
2024/01/22 05:48:10;;;;;;;0.50;0.50;;;8.00;99.90;;;;;;5079009;28;20203;-80
2024/01/22 05:50:38;;;;;;;0.40;0.30;;;8.00;99.90;;;;;;5078160;28;20198;-79
2024/01/22 05:53:05;;;;;;;1.02;0.93;;;8.00;99.90;;;;;;5076925;28;20203;-79
2024/01/22 05:55:32;;;;;;;1.13;0.40;;;8.00;99.90;;;;;;5073904;28;20199;-78
2024/01/22 05:57:59;;;;;;;0.40;0.40;;;8.00;99.90;;;;;;5062903;28;20209;-79
2024/01/22 06:00:26;;;;;;;0.70;0.60;;;8.00;99.90;;;;;;5065124;28;20199;-78
2024/01/22 06:02:54;;;;;;;0.50;0.47;;;8.10;99.90;;;;;;5058870;28;20679;-78
2024/01/22 06:05:21;;;;;;;0.50;0.43;;;8.10;99.90;;;;;;5060357;28;20232;-80
2024/01/22 06:07:49;;;;;;;0.75;0.60;;;8.10;99.90;;;;;;5078093;28;20234;-79
2024/01/22 06:10:16;;;;;;;0.40;0.38;;;8.20;99.90;;;;;;5078206;28;20209;-78
2024/01/22 06:12:42;;;;;;;1.17;0.60;;;8.20;99.90;;;;;;5090099;22;20226;-83
2024/01/22 06:15:10;;;;;;;0.60;0.60;;;8.30;99.90;;;;;;5072088;28;20191;-80
2024/01/22 06:17:36;;;;;;;0.40;0.40;;;8.30;99.90;;;;;;5078716;28;20277;-84
2024/01/22 06:20:04;;;;;;;0.40;0.30;;;8.30;99.90;;;;;;5082302;28;20206;-83
2024/01/22 06:22:30;;;;;;;1.98;0.80;;;8.40;99.90;;;;;;5072439;28;20212;-85
2024/01/22 06:25:00;;;;;;;4.22;0.70;;;8.40;99.90;;;;;;5040036;28;20230;-87
2024/01/22 06:27:27;;;;;;;0.68;0.40;;;8.50;99.90;;;;;;5059705;28;20217;-85
2024/01/22 06:29:56;;;;;;;0.40;0.40;;;8.50;99.90;;;;;;5051956;28;20207;-82
2024/01/22 06:32:23;;;;;;;0.85;0.85;;;8.60;99.90;;;;;;5049229;28;20286;-84
2024/01/22 06:34:50;;;;;;;1.60;0.63;;;8.60;99.90;;;;;;5043813;28;20198;-83
2024/01/22 06:37:17;;;;;;;0.45;0.45;;;8.60;99.90;;;;;;5057359;28;20200;-84
2024/01/22 06:39:43;;;;;;;0.90;0.90;;;8.70;99.90;;;;;;5051881;28;20206;-83
2024/01/22 06:42:11;;;;;;;0.60;0.60;;;8.70;99.90;;;;;;5050998;28;20692;-83
2024/01/22 06:44:38;;;;;;;0.70;0.60;;;8.70;99.90;;;;;;5048079;28;20208;-83
2024/01/22 06:47:05;;;;;;;0.50;0.40;;;8.70;99.90;;;;;;5049914;28;20206;-85
2024/01/22 06:49:32;;;;;;;0.60;0.60;;;8.80;99.90;;;;;;5060565;28;20225;-83
2024/01/22 06:51:59;;;;;;;0.70;0.70;;;8.90;99.90;;;;;;5044561;28;20207;-83
2024/01/22 06:54:26;;;;;;;0.40;0.40;;;9.00;99.90;;;;;;5039579;28;20314;-83
2024/01/22 06:56:53;;;;;;;0.98;0.60;;;9.20;99.90;;;;;;5037654;28;20227;-83
2024/01/22 06:59:24;;;;;;;0.60;0.50;;;9.30;99.90;;;;;;5036937;28;20200;-83
2024/01/22 07:01:52;;;;;;;0.60;0.60;;;9.40;99.90;;;;;;5036839;28;20445;-83
2024/01/22 07:04:19;;;;;;;0.40;0.40;;;9.50;99.90;;;;;;5044896;28;20230;-83
2024/01/22 07:06:46;;;;;;;2.00;1.10;;;9.50;99.90;;;;;;5045734;28;20200;-83
2024/01/22 07:09:13;;;;;;;0.50;0.40;;;9.50;99.90;;;;;;5036800;28;20286;-81
2024/01/22 07:11:41;;;;;;;0.60;0.60;;;9.70;99.90;;;;;;5037004;28;20206;-83
2024/01/22 07:14:08;;;;;;;1.90;0.75;;;9.70;99.90;;;;;;5036864;28;20586;-82
2024/01/22 07:16:36;;;;;;;0.60;0.60;;;9.70;99.90;;;;;;5036963;28;20188;-81
2024/01/22 07:19:03;;;;;;;0.65;0.60;;;9.70;99.90;;;;;;5045081;28;20450;-85
2024/01/22 07:21:30;;;;;;;0.63;0.60;;;9.80;99.90;;;;;;5036822;28;20196;-83
2024/01/22 07:23:56;;;;;;;0.60;0.60;;;9.80;99.90;;;;;;5037459;28;20219;-84
2024/01/22 07:26:23;;;;;;;0.60;0.60;;;9.90;99.90;;;;;;5037336;28;20442;-84
2024/01/22 07:28:50;;;;;;;0.40;0.40;;;9.90;99.90;;;;;;5037359;28;20204;-84
2024/01/22 07:31:17;;;;;;;0.50;0.50;;;10.00;99.90;;;;;;5037067;28;20299;-79
2024/01/22 07:33:45;;;;;;;0.82;0.75;;;10.00;99.90;;;;;;5037106;28;20450;-83
2024/01/22 07:36:12;;;;;;;0.63;0.50;;;10.10;99.90;;;;;;5036352;28;20199;-81
2024/01/22 07:38:39;;;;;;;0.98;0.60;;;10.20;99.90;;;;;;5036195;28;20199;-81
2024/01/22 07:41:06;;;;;;;1.17;1.08;;;10.40;99.90;;;;;;5036285;28;20203;-83
2024/01/22 07:43:33;;;;;;;0.50;0.50;;;10.50;99.90;;;;;;5035800;28;20277;-83
2024/01/22 07:45:59;;;;;;;0.60;0.60;;;10.60;99.90;;;;;;5036031;28;20482;-83
2024/01/22 07:48:26;;;;;;;0.88;0.88;;;10.60;99.90;;;;;;5044849;28;20925;-85
2024/01/22 07:50:54;;;;;;;1.25;1.15;;;10.70;99.90;;;;;;5036250;28;20200;-83
2024/01/22 07:53:21;;;;;;;0.70;0.70;;;10.70;99.90;;;;;;5036006;28;20220;-83
2024/01/22 07:55:48;;;;;;;0.70;0.55;;;10.70;99.90;;;;;;5035483;28;20438;-82
2024/01/22 07:58:15;;;;;;;0.50;0.40;;;10.90;99.90;;;;;;5035557;28;20207;-84
2024/01/22 08:00:42;;;;;;;0.80;0.50;;;10.90;99.90;;;;;;5035595;28;20434;-82
2024/01/22 08:03:08;;;;;;;1.53;0.47;;;11.00;99.90;;;;;;5036373;28;20230;-82
2024/01/22 08:05:35;;;;;;;0.50;0.40;;;11.00;99.90;;;;;;5035926;28;20519;-85
2024/01/22 08:08:03;;;;;;;0.60;0.60;;;10.90;99.90;;;;;;5035890;28;20455;-83
2024/01/22 08:10:30;;;;;;;0.50;0.40;;;10.80;99.90;;;;;;5035047;28;20449;-83
2024/01/22 08:12:57;;;;;;;1.87;0.73;;;10.80;99.90;;;;;;5035396;28;20476;-82
2024/01/22 08:15:24;;;;;;;1.67;0.70;;;10.80;99.90;;;;;;5036424;28;20457;-86
2024/01/22 08:17:50;;;;;;;0.50;0.50;;;10.70;99.90;;;;;;5039822;28;20835;-84
2024/01/22 08:20:18;;;;;;;0.57;0.57;;;10.40;99.90;;;;;;5041152;28;20221;-82
2024/01/22 08:22:46;;;;;;;0.90;0.55;;;10.30;99.90;;;;;;5038664;28;20463;-84
2024/01/22 08:25:19;;;;;;;1.53;1.43;;;10.20;99.90;;;;;;5038132;28;20226;-84
2024/01/22 08:27:45;;;;;;;2.67;0.77;;;10.20;99.90;;;;;;5043863;28;20447;-84
2024/01/22 08:30:13;;;;;;;0.73;0.67;;;10.20;99.90;;;;;;5036284;28;20573;-83
2024/01/22 08:32:40;;;;;;;1.20;0.70;;;10.20;99.90;;;;;;5036113;28;20462;-83
2024/01/22 08:35:09;;;;;;;1.17;0.90;;;10.20;99.90;;;;;;5037100;28;20196;-83
2024/01/22 08:37:37;;;;;;;0.40;0.40;;;10.20;99.90;;;;;;5038205;28;20826;-85
2024/01/22 08:40:05;;;;;;;0.50;0.50;;;10.20;99.90;;;;;;5038158;28;20271;-83
2024/01/22 08:42:34;;;;;;;0.73;0.73;;;10.20;99.90;;;;;;5037550;28;20310;-83
2024/01/22 08:45:00;;;;;;;0.40;0.40;;;10.20;99.90;;;;;;5045393;28;20697;-85
2024/01/22 08:47:27;;;;;;;0.50;0.43;;;10.20;99.90;;;;;;5037317;28;20200;-85
2024/01/22 08:49:54;;;;;;;0.73;0.73;;;10.20;99.90;;;;;;5037473;28;20207;-84
2024/01/22 08:52:21;;;;;;;0.43;0.40;;;10.10;99.90;;;;;;5036872;28;20442;-84
2024/01/22 08:54:48;;;;;;;1.05;1.05;;;10.10;99.90;;;;;;5037998;28;20819;-84
2024/01/22 08:57:16;;;;;;;4.73;1.67;;;10.20;99.90;;;;;;5037859;28;20705;-84
2024/01/22 08:59:44;;;;;;;0.77;0.50;;;10.20;99.90;;;;;;5038604;28;20442;-83
2024/01/22 09:02:11;;;;;;;0.50;0.50;;;10.20;99.90;;;;;;5036465;28;20801;-83
2024/01/22 09:04:37;;;;;;;0.70;0.70;;;10.30;99.90;;;;;;5036592;28;20434;-83
2024/01/22 09:07:04;;;;;;;0.60;0.60;;;10.30;99.90;;;;;;5035846;28;20208;-86
2024/01/22 09:09:31;;;;;;;1.77;0.55;;;10.30;99.90;;;;;;5035288;28;20447;-82
2024/01/22 09:11:58;;;;;;;0.47;0.40;;;10.40;99.90;;;;;;5035877;28;20203;-83
2024/01/22 09:14:24;;;;;;;0.40;0.40;;;10.40;99.90;;;;;;5035247;28;20504;-84
2024/01/22 09:16:52;;;;;;;0.57;0.50;;;10.50;99.90;;;;;;5035492;28;20443;-83
2024/01/22 09:19:19;;;;;;;0.67;0.67;;;10.40;99.90;;;;;;5035117;28;20276;-81
2024/01/22 09:21:46;;;;;;;1.57;0.73;;;10.40;99.90;;;;;;5035625;28;20446;-82
2024/01/22 09:24:13;;;;;;;0.70;0.50;;;10.30;99.90;;;;;;5035477;28;20462;-84
2024/01/22 09:26:40;;;;;;;0.50;0.50;;;10.40;99.90;;;;;;5036083;28;20226;-83
2024/01/22 09:29:06;;;;;;;0.80;0.80;;;10.30;99.90;;;;;;5035052;28;20438;-82
2024/01/22 09:31:35;;;;;;;1.10;0.60;;;10.40;99.90;;;;;;5034769;28;20442;-81
2024/01/22 09:34:04;;;;;;;0.70;0.43;;;10.40;99.90;;;;;;5038132;28;20458;-83
2024/01/22 09:36:31;;;;;;;0.60;0.60;;;10.50;99.90;;;;;;5038056;28;20450;-82
2024/01/22 09:38:58;;;;;;;0.50;0.40;;;10.60;99.90;;;;;;5037946;28;20453;-83
2024/01/22 09:41:27;;;;;;;2.13;0.43;;;10.60;99.90;;;;;;5037287;28;20476;-82
2024/01/22 09:43:55;;;;;;;1.03;0.87;;;10.70;99.90;;;;;;5038843;28;20466;-82
2024/01/22 09:46:23;;;;;;;0.83;0.83;;;10.80;99.90;;;;;;5037461;28;20485;-83
2024/01/22 09:48:50;;;;;;;1.23;0.97;;;10.90;99.90;;;;;;5038543;28;20438;-82
2024/01/22 09:51:18;;;;;;;0.53;0.50;;;10.90;99.90;;;;;;5037765;28;20446;-80
2024/01/22 09:53:48;;;;;;;4.40;1.10;;;10.90;99.90;;;;;;5046845;28;20470;-83
2024/01/22 09:56:19;;;;;;;0.53;0.53;;;11.00;99.90;;;;;;5038371;28;20506;-84
2024/01/22 09:58:47;;;;;;;0.50;0.40;;;11.00;99.90;;;;;;5039057;28;20457;-82
2024/01/22 10:01:15;;;;;;;0.50;0.50;;;11.10;99.90;;;;;;5037333;28;20473;-82
2024/01/22 10:03:44;;;;;;;0.50;0.40;;;11.10;99.90;;;;;;5038836;28;20461;-82
2024/01/22 10:06:12;;;;;;;1.00;0.60;;;11.10;99.90;;;;;;5038929;28;20485;-78
2024/01/22 10:08:40;;;;;;;0.70;0.70;;;11.10;99.90;;;;;;5039361;28;20480;-82
2024/01/22 10:11:07;;;;;;;0.60;0.50;;;11.20;99.90;;;;;;5040101;28;20449;-82
2024/01/22 10:13:48;;;;;;;0.50;0.40;;;11.30;99.90;;;;;;5040108;28;20470;-82
2024/01/22 10:16:15;;;;;;;0.77;0.50;;;11.30;99.90;;;;;;5041062;28;20427;-82
2024/01/22 10:18:56;;;;;;;0.50;0.40;;;11.30;99.90;;;;;;5039913;28;20446;-83
2024/01/22 10:21:23;;;;;;;0.50;0.40;;;11.30;99.90;;;;;;5040556;28;20438;-82
2024/01/22 10:23:58;;;;;;;13.17;1.30;;;11.30;99.90;;;;;;5048544;28;20454;-82
2024/01/22 10:26:24;;;;;;;4.60;0.60;;;11.30;99.90;;;;;;5050076;28;20481;-84
2024/01/22 10:28:51;;;;;;;0.93;0.60;;;11.30;99.90;;;;;;5042098;28;20814;-83
2024/01/22 10:31:18;;;;;;;2.90;0.60;;;11.30;99.90;;;;;;5042053;28;20530;-80
2024/01/22 10:33:45;;;;;;;0.70;0.57;;;11.40;99.90;;;;;;5040720;28;20454;-82
2024/01/22 10:36:17;;;;;;;0.50;0.47;;;11.40;99.90;;;;;;5040856;28;20431;-80
2024/01/22 10:38:45;;;;;;;2.03;1.47;;;11.50;99.90;;;;;;5043107;28;20499;-82
2024/01/22 10:41:20;;;;;;;0.97;0.87;;;11.60;99.90;;;;;;5041991;28;20461;-82
2024/01/22 10:43:47;;;;;;;3.60;0.97;;;11.50;99.90;;;;;;5042235;28;20461;-84
2024/01/22 10:46:14;;;;;;;1.63;1.33;;;11.60;99.90;;;;;;5042741;28;20920;-83
2024/01/22 10:48:42;;;;;;;0.50;0.40;;;11.60;99.90;;;;;;5038026;28;21096;-83
2024/01/22 10:51:09;;;;;;;0.50;0.33;;;11.60;99.90;;;;;;5038550;28;20443;-83
2024/01/22 10:53:37;;;;;;;3.17;0.73;;;11.60;99.90;;;;;;5040138;28;20466;-83
2024/01/22 10:56:09;;;;;;;0.80;0.70;;;11.60;99.90;;;;;;5043660;28;20518;-83
2024/01/22 10:58:42;;;;;;;5.23;1.63;;;11.60;99.90;;;;;;5042549;28;20441;-83
2024/01/22 11:01:14;;;;;;;4.13;1.07;;;11.60;99.90;;;;;;5042962;28;20451;-83
2024/01/22 11:03:46;;;;;;;1.07;0.60;;;11.60;99.90;;;;;;5042733;28;20530;-84
2024/01/22 11:06:16;;;;;;;0.80;0.67;;;11.60;99.90;;;;;;5042285;28;20497;-81
2024/01/22 11:08:44;;;;;;;0.93;0.57;;;11.60;99.90;;;;;;5044087;28;20446;-83
2024/01/22 11:11:13;;;;;;;0.97;0.50;;;11.60;99.90;;;;;;5043635;28;20477;-84
2024/01/22 11:13:41;;;;;;;6.03;1.27;;;11.60;99.90;;;;;;5051956;28;20468;-83
2024/01/22 11:16:09;;;;;;;0.50;0.50;;;11.70;99.90;;;;;;5042726;28;20443;-83
2024/01/22 11:18:36;;;;;;;0.80;0.53;;;11.60;99.90;;;;;;5041492;28;20446;-84
2024/01/22 11:21:19;;;;;;;1.07;1.00;;;11.70;99.90;;;;;;5038363;28;20960;-84
2024/01/22 11:24:04;;;;;;;1.30;1.30;;;11.70;99.90;;;;;;5043567;28;20462;-83
2024/01/22 11:26:30;;;;;;;1.87;0.60;;;11.70;99.90;;;;;;5051178;28;20539;-82
2024/01/22 11:29:08;;;;;;;0.50;0.40;;;11.70;99.90;;;;;;5039412;28;20445;-85
2024/01/22 11:31:36;;;;;;;1.30;1.20;;;11.70;99.90;;;;;;5037480;28;20865;-83
2024/01/22 11:34:03;;;;;;;1.37;0.87;;;11.60;99.90;;;;;;5038230;28;20516;-83
2024/01/22 11:36:53;;;;;;;13.77;1.00;;;11.60;99.90;;;;;;5035084;28;20522;-83
2024/01/22 11:39:56;;;;;;;1.00;0.90;;;11.40;99.90;;;;;;5038384;28;20530;-83
2024/01/22 11:42:28;;;;;;;0.90;0.70;;;11.10;99.90;;;;;;5034498;28;20885;-80
2024/01/22 11:44:58;;;;;;;2.10;1.50;;;11.00;99.90;;;;;;5038410;28;20458;-84
2024/01/22 11:47:26;;;;;;;0.50;0.40;;;10.80;99.90;;;;;;5041674;28;20478;-84
2024/01/22 11:50:01;;;;;;;3.00;1.00;;;10.70;99.90;;;;;;5038640;28;20453;-84
2024/01/22 11:52:28;;;;;;;12.80;2.50;;;10.50;99.90;;;;;;5052444;28;21053;-81
2024/01/22 11:54:56;;;;;;;0.70;0.67;;;10.50;99.90;;;;;;5035634;28;20481;-85
2024/01/22 11:57:23;;;;;;;0.88;0.50;;;10.40;99.90;;;;;;5038842;28;20475;-82
2024/01/22 12:00:04;;;;;;;0.50;0.50;;;10.30;99.90;;;;;;5037428;28;20202;-80
2024/01/22 12:02:32;;;;;;;0.40;0.40;;;10.20;99.90;;;;;;5037713;28;20462;-83
2024/01/22 12:05:03;;;;;;;2.70;0.93;;;10.10;99.90;;;;;;5046065;28;20501;-82
2024/01/22 12:07:34;;;;;;;0.50;0.40;;;10.00;99.90;;;;;;5037270;28;20823;-80
2024/01/22 12:10:01;;;;;;;1.33;1.02;;;9.80;99.90;;;;;;5041051;28;20207;-82
2024/01/22 12:12:28;;;;;;;0.50;0.40;;;9.50;99.90;;;;;;5041718;28;20221;-83
2024/01/22 12:14:57;;;;;;;0.60;0.40;;;9.20;99.90;;;;;;5034205;28;20268;-80
2024/01/22 12:17:25;;;;;;;0.47;0.40;;;9.00;99.90;;;;;;5034696;28;20249;-83
2024/01/22 12:19:54;;;;;;;0.50;0.40;;;8.80;99.90;;;;;;5033945;28;20663;-78
2024/01/22 12:22:23;;;;;;;0.60;0.60;;;8.70;99.90;;;;;;5033346;28;20192;-81
2024/01/22 12:25:06;;;;;;;1.42;1.15;;;8.70;99.90;;;;;;5035776;28;20203;-81
2024/01/22 12:27:33;;;;;;;0.63;0.63;;;8.70;99.90;;;;;;5034241;28;20219;-80
2024/01/22 12:30:09;;;;;;;0.40;0.40;;;8.70;99.90;;;;;;5035129;28;20250;-83
2024/01/22 12:32:39;;;;;;;0.40;0.40;;;8.70;99.90;;;;;;5034748;28;20226;-82
2024/01/22 12:35:07;;;;;;;0.40;0.40;;;8.60;99.90;;;;;;5034759;28;20203;-82
2024/01/22 12:37:35;;;;;;;0.40;0.40;;;8.50;99.90;;;;;;5036336;28;20192;-81
2024/01/22 12:40:05;;;;;;;0.50;0.50;;;8.50;99.90;;;;;;5042000;28;20192;-80
2024/01/22 12:42:32;;;;;;;0.40;0.40;;;8.50;99.90;;;;;;5032896;28;20215;-80
2024/01/22 12:44:59;;;;;;;0.45;0.40;;;8.50;99.90;;;;;;5034129;28;20198;-77
2024/01/22 12:47:25;;;;;;;3.65;1.40;;;8.50;99.90;;;;;;5031317;28;20211;-79
2024/01/22 12:49:53;;;;;;;0.70;0.70;;;8.50;99.90;;;;;;5039379;28;20709;-79
2024/01/22 12:52:23;;;;;;;0.60;0.60;;;8.60;99.90;;;;;;5030572;28;20659;-79
2024/01/22 12:54:50;;;;;;;1.23;0.77;;;8.60;99.90;;;;;;5033609;28;20208;-80
2024/01/22 12:57:16;;;;;;;0.45;0.40;;;8.60;99.90;;;;;;5046819;28;20242;-80